Time;durP1;ratioP1;P1;durP2;ratioP2;P2;SDS_P1;SDS_P2;PMS_P1;PMS_P2;Temp;Humidity;BMP_temperature;BMP_pressure;BME280_temperature;BME280_humidity;BME280_pressure;Samples;Min_cycle;Max_cycle;Signal;HPM_P1;HPM_P2
2023/08/17 00:01:58;;;;;;;2.53;2.42;;;22.20;99.90;;;22.48;72.13;102002.81;5063477;28;20167;-63
2023/08/17 00:04:26;;;;;;;2.25;2.15;;;22.20;99.90;;;22.50;72.22;101997.38;5061162;28;20053;-62
2023/08/17 00:06:56;;;;;;;2.30;2.20;;;22.10;99.90;;;22.43;72.17;102005.66;5063596;28;20078;-63
2023/08/17 00:09:25;;;;;;;2.47;2.37;;;22.10;99.90;;;22.45;72.06;102006.50;5060931;28;20049;-63
2023/08/17 00:11:53;;;;;;;2.40;2.30;;;22.10;99.90;;;22.46;72.37;101999.28;5052307;28;20146;-63
2023/08/17 00:14:22;;;;;;;2.40;2.30;;;22.10;99.90;;;22.39;72.36;102000.47;5052159;28;20045;-63
2023/08/17 00:16:51;;;;;;;2.28;2.17;;;22.10;99.90;;;22.32;72.27;101998.91;5052078;28;20044;-63
2023/08/17 00:19:19;;;;;;;2.50;2.40;;;22.10;99.90;;;22.35;72.52;102009.59;5057516;28;20444;-62
2023/08/17 00:21:48;;;;;;;2.55;2.45;;;22.00;99.90;;;22.37;72.71;102008.63;5062415;28;20036;-63
2023/08/17 00:24:18;;;;;;;2.45;2.35;;;22.00;99.90;;;22.38;72.78;102006.78;5062612;28;20044;-63
2023/08/17 00:26:46;;;;;;;6.18;3.88;;;22.00;99.90;;;22.31;72.95;102000.72;5061713;28;20037;-63
2023/08/17 00:29:15;;;;;;;2.35;2.25;;;21.90;99.90;;;22.32;72.88;102005.19;5063488;28;20076;-62
2023/08/17 00:31:43;;;;;;;2.58;2.47;;;22.00;99.90;;;22.35;72.92;102005.09;5060661;28;20057;-62
2023/08/17 00:34:12;;;;;;;2.05;1.95;;;22.00;99.90;;;22.38;72.66;102002.28;5052129;28;20107;-62
2023/08/17 00:36:40;;;;;;;2.50;2.40;;;22.00;99.90;;;22.33;72.88;101998.88;5058801;28;20048;-62
2023/08/17 00:39:08;;;;;;;2.20;2.10;;;21.90;99.90;;;22.33;72.80;101996.16;5056616;28;20478;-63
2023/08/17 00:41:38;;;;;;;2.20;2.10;;;21.90;99.90;;;22.32;72.66;101994.38;5078394;28;20135;-63
2023/08/17 00:44:07;;;;;;;2.55;2.45;;;21.90;99.90;;;22.35;72.42;101999.69;5061836;28;20048;-62
2023/08/17 00:46:38;;;;;;;2.25;2.15;;;21.90;99.90;;;22.32;72.65;101994.38;5068477;28;20544;-62
2023/08/17 00:49:07;;;;;;;2.60;2.50;;;21.90;99.90;;;22.22;72.36;101982.16;5063008;28;20072;-63
2023/08/17 00:51:36;;;;;;;2.40;2.30;;;22.00;99.90;;;22.33;72.25;101981.78;5060325;28;20056;-62
2023/08/17 00:54:05;;;;;;;2.40;2.30;;;22.00;99.90;;;22.31;72.42;101995.34;5063486;28;20040;-63
2023/08/17 00:56:34;;;;;;;2.75;2.65;;;22.00;99.90;;;22.27;72.50;101995.50;5051953;28;20056;-62
2023/08/17 00:59:04;;;;;;;2.55;2.45;;;21.90;99.90;;;22.23;72.28;101991.13;5051523;28;20051;-62
2023/08/17 01:01:32;;;;;;;2.30;2.20;;;21.90;99.90;;;22.14;72.66;101999.53;5052001;28;20372;-62
2023/08/17 01:04:01;;;;;;;2.58;2.47;;;21.80;99.90;;;22.09;72.75;101999.69;5058638;28;20395;-62
2023/08/17 01:06:29;;;;;;;2.33;2.22;;;21.80;99.90;;;22.09;73.11;102004.19;5057808;28;20065;-63
2023/08/17 01:08:58;;;;;;;2.80;2.70;;;21.80;99.90;;;22.10;73.18;101996.09;5068231;28;20060;-62
2023/08/17 01:11:35;;;;;;;2.47;2.38;;;21.80;99.90;;;21.93;73.38;101978.72;5062668;28;20122;-62
2023/08/17 01:14:16;;;;;;;2.47;2.38;;;21.70;99.90;;;22.06;73.30;101986.34;5060046;28;20048;-63
2023/08/17 01:16:52;;;;;;;2.80;2.70;;;21.70;99.90;;;22.10;73.25;101992.50;5063813;28;20049;-62
2023/08/17 01:19:27;;;;;;;2.58;2.47;;;21.70;99.90;;;22.10;72.64;101990.69;5067370;28;20051;-62
2023/08/17 01:22:02;;;;;;;2.22;2.13;;;21.80;99.90;;;22.12;73.06;101974.47;5064910;28;20119;-63
2023/08/17 01:24:32;;;;;;;2.60;2.50;;;21.70;99.90;;;22.15;73.14;101974.34;5080714;28;20055;-63
2023/08/17 01:27:00;;;;;;;2.45;2.35;;;21.80;99.90;;;22.11;72.84;101984.34;5066466;28;20090;-63
2023/08/17 01:29:29;;;;;;;2.50;2.40;;;21.80;99.90;;;22.08;72.54;101983.56;5070796;28;20375;-62
2023/08/17 01:32:05;;;;;;;3.75;2.85;;;21.70;99.90;;;22.00;72.86;101988.34;5079205;28;20049;-63
2023/08/17 01:34:40;;;;;;;2.58;2.47;;;21.70;99.90;;;22.03;73.10;101986.41;5064624;28;20122;-63
2023/08/17 01:37:11;;;;;;;2.45;2.35;;;21.70;99.90;;;21.87;72.90;101982.50;5064359;28;20071;-63
2023/08/17 01:39:46;;;;;;;2.47;2.38;;;21.60;99.90;;;21.89;73.29;101986.00;5066706;28;20165;-62
2023/08/17 01:42:16;;;;;;;2.40;2.30;;;21.60;99.90;;;21.86;73.30;101982.53;5063630;28;20049;-63
2023/08/17 01:44:45;;;;;;;2.60;2.50;;;21.50;99.90;;;21.86;73.67;101990.59;5065975;28;20119;-61
2023/08/17 01:47:16;;;;;;;2.75;2.65;;;21.50;99.90;;;21.89;73.64;101977.91;5060572;28;20589;-63
2023/08/17 01:49:44;;;;;;;2.70;2.60;;;21.50;99.90;;;21.87;73.44;101979.81;5065461;28;20077;-62
2023/08/17 01:52:14;;;;;;;2.25;2.15;;;21.50;99.90;;;21.81;73.63;101977.31;5064537;28;20055;-63
2023/08/17 01:54:46;;;;;;;2.33;2.22;;;21.50;99.90;;;21.79;73.79;101973.75;5078634;28;20036;-63
2023/08/17 01:57:14;;;;;;;2.72;2.63;;;21.50;99.90;;;21.71;73.72;101964.16;5055254;28;20053;-62
2023/08/17 01:59:43;;;;;;;2.53;2.42;;;21.40;99.90;;;21.72;74.03;101968.63;5070461;28;20056;-62
2023/08/17 02:02:14;;;;;;;2.50;2.40;;;21.40;99.90;;;21.72;73.90;101969.47;5055370;28;20044;-62
2023/08/17 02:04:42;;;;;;;;;;;21.40;99.90;;;21.70;74.03;101963.25;5055293;28;20043;-63
2023/08/17 02:07:11;;;;;;;3.03;2.92;;;21.30;99.90;;;21.75;73.94;101969.41;5064885;28;19921;-62
2023/08/17 02:09:40;;;;;;;2.47;2.38;;;21.40;99.90;;;21.68;73.77;101969.66;5064555;28;20461;-62
2023/08/17 02:12:09;;;;;;;2.67;2.58;;;21.30;99.90;;;21.69;73.78;101963.31;5065666;28;20631;-62
2023/08/17 02:14:38;;;;;;;2.40;2.30;;;21.40;99.90;;;21.61;73.99;101966.25;5070498;28;20077;-63
2023/08/17 02:17:08;;;;;;;2.80;2.70;;;21.30;99.90;;;21.68;74.22;101973.19;5065627;28;20044;-63
2023/08/17 02:19:36;;;;;;;2.70;2.60;;;21.30;99.90;;;21.71;74.06;101967.72;5066545;28;20083;-63
2023/08/17 02:22:06;;;;;;;2.40;2.30;;;21.30;99.90;;;21.55;73.70;101967.34;5065718;28;20040;-62
2023/08/17 02:24:34;;;;;;;2.58;2.47;;;21.30;99.90;;;21.66;73.75;101975.06;5063722;28;20041;-62
2023/08/17 02:27:02;;;;;;;2.65;2.55;;;21.30;99.90;;;21.61;73.88;101960.88;5063639;28;20044;-62
2023/08/17 02:29:32;;;;;;;2.90;2.80;;;21.30;99.90;;;21.61;74.11;101963.56;5064117;28;20045;-62
2023/08/17 02:32:01;;;;;;;2.43;2.33;;;21.30;99.90;;;21.64;74.16;101971.53;5063635;28;20486;-62
2023/08/17 02:34:29;;;;;;;2.45;2.35;;;21.30;99.90;;;21.61;73.91;101966.25;5060617;28;20375;-62
2023/08/17 02:36:57;;;;;;;2.30;2.20;;;21.30;99.90;;;21.59;73.88;101968.13;5065592;28;20044;-62
2023/08/17 02:39:26;;;;;;;2.30;2.20;;;21.20;99.90;;;21.59;73.99;101968.13;5062415;28;20490;-62
2023/08/17 02:41:55;;;;;;;2.55;2.45;;;21.20;99.90;;;21.54;74.30;101964.69;5052901;28;20210;-62
2023/08/17 02:44:23;;;;;;;2.20;2.10;;;21.20;99.90;;;21.56;74.17;101966.41;5064326;28;20073;-62
2023/08/17 02:46:53;;;;;;;2.70;2.60;;;21.20;99.90;;;21.50;73.98;101961.19;5053711;28;20494;-61
2023/08/17 02:49:21;;;;;;;3.20;3.10;;;21.20;99.90;;;21.49;74.26;101963.94;5058818;28;20167;-62
2023/08/17 02:51:50;;;;;;;2.58;2.47;;;21.10;99.90;;;21.41;74.28;101968.69;5059689;28;20053;-62
2023/08/17 02:54:18;;;;;;;2.67;2.58;;;21.10;99.90;;;21.44;74.29;101963.22;5063805;28;20033;-62
2023/08/17 02:56:47;;;;;;;2.40;2.30;;;21.10;99.90;;;21.37;74.48;101954.44;5063994;28;20502;-62
2023/08/17 02:59:15;;;;;;;2.50;2.40;;;21.00;99.90;;;21.42;74.54;101959.69;5063034;28;20084;-62
2023/08/17 03:01:45;;;;;;;12.65;3.15;;;21.00;99.90;;;21.29;74.74;101950.25;5064623;28;20489;-62
2023/08/17 03:04:15;;;;;;;2.70;2.60;;;21.00;99.90;;;21.38;74.72;101956.22;5061449;28;20502;-62
2023/08/17 03:06:44;;;;;;;2.60;2.50;;;21.00;99.90;;;21.44;74.90;101960.53;5053562;28;20490;-62
2023/08/17 03:09:12;;;;;;;2.97;2.88;;;21.10;99.90;;;21.30;75.09;101950.19;5053281;28;20337;-62
2023/08/17 03:11:40;;;;;;;2.45;2.35;;;21.10;99.90;;;21.42;74.85;101954.31;5053683;28;20052;-62
2023/08/17 03:14:09;;;;;;;2.55;2.45;;;21.00;99.90;;;21.44;74.66;101957.84;5055023;28;20057;-62
2023/08/17 03:16:37;;;;;;;2.42;2.33;;;21.00;99.90;;;21.45;74.73;101960.47;5063231;28;20048;-62
2023/08/17 03:19:07;;;;;;;2.45;2.35;;;21.10;99.90;;;21.39;74.85;101955.28;5063817;28;20064;-62
2023/08/17 03:21:37;;;;;;;2.50;2.40;;;21.00;99.90;;;21.43;75.25;101956.06;5077434;28;20057;-62
2023/08/17 03:24:07;;;;;;;2.40;2.30;;;21.00;99.90;;;21.41;75.10;101953.44;5064485;28;20047;-62
2023/08/17 03:26:36;;;;;;;2.60;2.50;;;21.00;99.90;;;21.42;74.96;101948.94;5052072;28;20045;-62
2023/08/17 03:29:04;;;;;;;2.42;2.33;;;21.10;99.90;;;21.45;75.20;101959.59;5053228;28;20117;-62
2023/08/17 03:31:33;;;;;;;2.78;2.67;;;21.10;99.90;;;21.41;75.22;101952.53;5062880;28;20053;-63
2023/08/17 03:34:02;;;;;;;2.83;2.72;;;21.10;99.90;;;21.30;75.10;101946.63;5057859;28;20569;-62
2023/08/17 03:36:30;;;;;;;2.67;2.58;;;21.00;99.90;;;21.37;75.24;101953.56;5059699;28;20213;-62
2023/08/17 03:39:00;;;;;;;2.55;2.45;;;21.00;99.90;;;21.35;75.31;101952.75;5058006;28;20441;-62
2023/08/17 03:41:30;;;;;;;2.97;2.88;;;21.00;99.90;;;21.25;75.62;101949.44;5069725;28;20098;-62
2023/08/17 03:43:58;;;;;;;2.58;2.47;;;20.90;99.90;;;21.23;75.78;101947.75;5061623;28;20041;-62
2023/08/17 03:46:27;;;;;;;2.85;2.75;;;20.90;99.90;;;21.07;76.22;101941.97;5059478;28;20045;-62
2023/08/17 03:48:55;;;;;;;3.08;2.97;;;20.80;99.90;;;21.17;76.35;101945.25;5060562;28;20107;-62
2023/08/17 03:51:24;;;;;;;3.40;3.30;;;20.80;99.90;;;21.04;76.51;101952.78;5076301;28;20071;-62
2023/08/17 03:53:52;;;;;;;2.42;2.33;;;20.70;99.90;;;21.08;76.68;101956.31;5070540;28;20063;-62
2023/08/17 03:56:22;;;;;;;2.50;2.40;;;20.70;99.90;;;21.06;76.93;101955.47;5057115;28;20579;-62
2023/08/17 03:58:51;;;;;;;2.67;2.58;;;20.80;99.90;;;20.97;76.97;101936.84;5062635;28;20049;-62
2023/08/17 04:01:19;;;;;;;2.30;2.20;;;20.70;99.90;;;20.94;77.01;101942.34;5061028;28;20055;-62
2023/08/17 04:03:48;;;;;;;2.58;2.47;;;20.70;99.90;;;20.99;77.05;101943.97;5058450;28;20057;-62
2023/08/17 04:06:16;;;;;;;2.40;2.30;;;20.70;99.90;;;21.02;77.06;101953.78;5063441;28;20047;-62
2023/08/17 04:08:45;;;;;;;2.60;2.50;;;20.70;99.90;;;21.00;77.19;101950.22;5061183;28;20123;-62
2023/08/17 04:11:14;;;;;;;2.97;2.88;;;20.70;99.90;;;21.00;77.34;101961.00;5064230;28;20048;-62
2023/08/17 04:13:44;;;;;;;2.20;2.10;;;20.70;99.90;;;21.00;77.34;101959.16;5052443;28;20045;-62
2023/08/17 04:16:12;;;;;;;2.63;2.53;;;20.70;99.90;;;21.06;77.54;101967.09;5062394;28;20433;-62
2023/08/17 04:18:41;;;;;;;2.65;2.55;;;20.70;99.90;;;21.01;77.64;101946.63;5061913;28;20040;-62
2023/08/17 04:21:09;;;;;;;2.70;2.60;;;20.70;99.90;;;21.00;77.54;101940.31;5056237;28;20772;-62
2023/08/17 04:23:38;;;;;;;2.65;2.55;;;20.70;99.90;;;20.96;77.58;101949.44;5069111;28;20055;-62
2023/08/17 04:26:06;;;;;;;2.65;2.55;;;20.60;99.90;;;20.99;77.93;101952.03;5057759;28;20048;-62
2023/08/17 04:28:36;;;;;;;2.83;2.72;;;20.60;99.90;;;21.01;77.88;101957.41;5078377;28;20052;-61
2023/08/17 04:31:06;;;;;;;2.70;2.60;;;20.70;99.90;;;21.00;77.77;101951.09;5067617;28;20044;-62
2023/08/17 04:33:38;;;;;;;2.47;2.38;;;20.70;99.90;;;21.00;77.66;101950.22;5059393;28;20048;-62
2023/08/17 04:36:06;;;;;;;2.78;2.67;;;20.70;99.90;;;21.02;77.84;101965.41;5070153;28;20049;-63
2023/08/17 04:38:35;;;;;;;2.83;2.72;;;20.70;99.90;;;20.81;77.99;101951.72;5056487;28;20045;-62
2023/08/17 04:41:03;;;;;;;2.70;2.60;;;20.50;99.90;;;20.87;77.99;101956.88;5076944;28;20490;-62
2023/08/17 04:43:32;;;;;;;2.42;2.33;;;20.60;99.90;;;20.86;78.29;101949.75;5068897;28;20106;-61
2023/08/17 04:46:01;;;;;;;2.60;2.50;;;20.60;99.90;;;20.87;78.25;101946.13;5057701;28;20053;-62
2023/08/17 04:48:32;;;;;;;2.50;2.40;;;20.60;99.90;;;20.92;78.32;101952.25;5060604;28;20045;-62
2023/08/17 04:51:01;;;;;;;;;;;20.60;99.90;;;20.82;78.50;101953.44;5069328;28;20565;-64
2023/08/17 04:53:29;;;;;;;2.70;2.60;;;20.50;99.90;;;20.68;78.63;101935.91;5062777;28;20023;-63
2023/08/17 04:55:59;;;;;;;2.60;2.50;;;20.50;99.90;;;20.81;78.67;101959.78;5064457;28;20126;-63
2023/08/17 04:58:28;;;;;;;2.90;2.80;;;20.50;99.90;;;20.75;79.00;101946.50;5067630;28;20064;-62
2023/08/17 05:00:56;;;;;;;2.90;2.80;;;20.50;99.90;;;20.85;79.27;101950.69;5077302;28;20067;-62
2023/08/17 05:03:24;;;;;;;2.55;2.45;;;20.50;99.90;;;20.84;79.27;101947.13;5062451;28;20095;-62
2023/08/17 05:06:00;;;;;;;2.78;2.67;;;20.50;99.90;;;20.83;79.07;101947.16;5080853;28;20930;-62
2023/08/17 05:08:29;;;;;;;3.55;3.30;;;20.50;99.90;;;20.88;79.18;101946.09;5067369;28;20052;-62
2023/08/17 05:10:58;;;;;;;2.53;2.42;;;20.60;99.90;;;20.90;78.93;101940.66;5062853;28;20493;-62
2023/08/17 05:13:27;;;;;;;2.50;2.40;;;20.60;99.90;;;20.95;79.20;101947.66;5054762;28;20049;-62
2023/08/17 05:15:58;;;;;;;2.95;2.85;;;20.60;99.90;;;20.84;79.00;101944.41;5065979;28;20048;-63
2023/08/17 05:18:27;;;;;;;2.67;2.58;;;20.60;99.90;;;20.93;79.04;101941.44;5062743;28;20395;-62
2023/08/17 05:20:56;;;;;;;3.35;3.15;;;20.60;99.90;;;20.93;78.95;101938.75;5062226;28;20057;-62
2023/08/17 05:23:26;;;;;;;14.25;5.45;;;20.60;99.90;;;20.84;78.66;101946.22;5061172;28;20048;-61
2023/08/17 05:25:54;;;;;;;3.53;3.35;;;20.50;99.90;;;20.90;78.87;101941.56;5065066;28;20110;-63
2023/08/17 05:28:23;;;;;;;2.67;2.58;;;20.50;99.90;;;20.87;78.84;101936.25;5079935;28;20060;-62
2023/08/17 05:30:53;;;;;;;2.53;2.42;;;20.60;99.90;;;20.97;78.73;101939.53;5067202;28;20079;-60
2023/08/17 05:33:22;;;;;;;2.60;2.50;;;20.60;99.90;;;20.68;78.72;101910.81;5062623;28;20651;-62
2023/08/17 05:35:55;;;;;;;2.40;2.30;;;20.60;99.90;;;20.51;78.66;101875.50;5082216;28;20437;-63
2023/08/17 05:38:24;;;;;;;2.67;2.58;;;20.60;99.90;;;20.88;78.24;101942.53;5065162;28;20045;-62
2023/08/17 05:40:56;;;;;;;2.57;2.47;;;20.60;99.90;;;20.75;78.55;101938.44;5065357;28;20048;-63
2023/08/17 05:43:25;;;;;;;2.53;2.42;;;20.50;99.90;;;20.85;79.26;101950.69;5078683;28;20387;-63
2023/08/17 05:45:54;;;;;;;2.70;2.60;;;20.50;99.90;;;20.79;78.80;101938.28;5066468;28;20075;-63
2023/08/17 05:48:23;;;;;;;2.80;2.70;;;20.50;99.90;;;20.89;78.89;101955.03;5061785;28;20056;-62
2023/08/17 05:50:52;;;;;;;2.40;2.30;;;20.50;99.90;;;20.84;78.65;101956.97;5066696;28;20082;-62
2023/08/17 05:53:20;;;;;;;2.30;2.20;;;20.60;99.90;;;20.94;78.58;101955.78;5059109;28;20041;-63
2023/08/17 05:55:50;;;;;;;2.80;2.70;;;20.60;99.90;;;21.02;78.09;101961.88;5063888;28;20398;-62
2023/08/17 05:58:18;;;;;;;2.67;2.57;;;20.70;99.90;;;21.08;78.12;101956.31;5064936;28;20052;-64
2023/08/17 06:00:47;;;;;;;2.92;2.83;;;20.80;99.90;;;21.12;77.74;101961.53;5064728;28;20358;-63
2023/08/17 06:03:15;;;;;;;2.88;2.78;;;20.80;99.90;;;21.13;77.78;101957.91;5063920;28;20047;-63
2023/08/17 06:05:44;;;;;;;2.55;2.45;;;20.80;99.90;;;19.98;77.50;101757.88;5065707;28;20161;-63
2023/08/17 06:08:12;;;;;;;2.80;2.70;;;20.80;99.90;;;21.17;77.60;101959.59;5063146;28;20094;-63
2023/08/17 06:10:40;;;;;;;2.67;2.58;;;20.90;99.90;;;21.20;77.18;101958.59;5065964;28;20131;-62
2023/08/17 06:13:10;;;;;;;2.63;2.53;;;20.90;99.90;;;21.18;77.33;101960.44;5062685;28;20087;-63
2023/08/17 06:15:38;;;;;;;2.65;2.55;;;20.90;99.90;;;21.17;77.04;101953.31;5063364;28;20055;-64
2023/08/17 06:18:07;;;;;;;2.40;2.30;;;20.90;99.90;;;21.13;77.57;101966.00;5065418;28;20098;-62
2023/08/17 06:20:35;;;;;;;2.63;2.53;;;20.90;99.90;;;21.11;77.11;101975.03;5058811;28;20078;-63
2023/08/17 06:23:05;;;;;;;2.40;2.30;;;20.80;99.90;;;21.20;76.89;101974.75;5063785;28;20063;-63
2023/08/17 06:25:34;;;;;;;2.40;2.30;;;20.90;99.90;;;21.16;77.31;101978.44;5079719;28;20052;-63
2023/08/17 06:28:02;;;;;;;2.40;2.30;;;20.90;99.90;;;21.08;77.39;101977.84;5064471;28;20080;-64
2023/08/17 06:30:32;;;;;;;2.67;2.58;;;20.80;99.90;;;21.10;77.76;101967.91;5070110;28;20048;-63
2023/08/17 06:33:00;;;;;;;2.57;2.47;;;20.80;99.90;;;21.12;77.35;101977.66;5066098;28;20058;-63
2023/08/17 06:35:28;;;;;;;2.67;2.58;;;20.80;99.90;;;21.09;77.40;101977.78;5062294;28;20051;-63
2023/08/17 06:37:57;;;;;;;2.65;2.55;;;20.80;99.90;;;21.08;77.81;101976.00;5053864;28;20178;-63
2023/08/17 06:40:26;;;;;;;3.40;3.20;;;20.90;99.90;;;20.71;77.46;101882.97;5060823;28;20049;-63
2023/08/17 06:42:55;;;;;;;2.60;2.50;;;20.90;99.90;;;21.24;77.51;101973.72;5058844;28;20513;-63
2023/08/17 06:45:23;;;;;;;3.10;3.00;;;21.00;99.90;;;21.19;77.46;101965.81;5079913;28;20502;-63
2023/08/17 06:47:53;;;;;;;2.50;2.40;;;21.00;99.90;;;21.27;77.60;101981.72;5063544;28;20474;-63
2023/08/17 06:50:22;;;;;;;2.60;2.50;;;21.00;99.90;;;21.26;77.56;101977.25;5063508;28;20083;-62
2023/08/17 06:52:51;;;;;;;2.72;2.63;;;21.00;99.90;;;21.26;77.50;101972.75;5064582;28;20048;-64
2023/08/17 06:55:20;;;;;;;2.42;2.33;;;21.00;99.90;;;21.38;77.53;101984.97;5062478;28;20483;-58
2023/08/17 06:57:51;;;;;;;2.72;2.63;;;21.00;99.90;;;21.42;77.11;101981.25;5065418;28;20048;-63
2023/08/17 07:00:21;;;;;;;2.72;2.63;;;21.10;99.90;;;21.44;77.06;101979.38;5053455;28;20151;-63
2023/08/17 07:02:50;;;;;;;2.50;2.40;;;21.10;99.90;;;21.25;76.73;101925.22;5053687;28;20045;-62
2023/08/17 07:05:23;;;;;;;3.35;3.20;;;21.20;99.90;;;21.67;76.89;101973.25;5053394;28;20045;-62
2023/08/17 07:07:53;;;;;;;2.80;2.70;;;21.30;99.90;;;21.78;76.52;101961.19;5055834;28;20053;-62
2023/08/17 07:10:22;;;;;;;2.97;2.88;;;21.40;99.90;;;22.00;76.58;101959.59;5062108;28;20060;-63
2023/08/17 07:12:50;;;;;;;2.80;2.70;;;21.70;99.90;;;22.21;75.68;101957.97;5064662;28;20048;-63
2023/08/17 07:15:19;;;;;;;2.38;2.28;;;21.90;99.90;;;22.34;74.75;101965.56;5053396;28;20052;-62
2023/08/17 07:17:47;;;;;;;2.25;2.15;;;22.00;99.90;;;22.48;74.31;101973.16;5053115;28;20494;-64
2023/08/17 07:20:16;;;;;;;2.65;2.55;;;22.20;99.90;;;22.63;73.99;101977.16;5053188;28;20060;-64
2023/08/17 07:22:46;;;;;;;2.20;2.10;;;22.40;99.90;;;22.10;72.44;101873.91;5053205;28;20410;-64
2023/08/17 07:25:15;;;;;;;2.03;1.92;;;22.40;99.90;;;22.82;73.13;101976.41;5062753;28;20049;-64
2023/08/17 07:27:43;;;;;;;2.30;2.20;;;22.60;99.90;;;22.98;72.35;101982.09;5062847;28;20083;-66
2023/08/17 07:30:13;;;;;;;2.50;2.40;;;22.70;99.90;;;22.84;71.44;101976.38;5063403;28;20456;-65
2023/08/17 07:32:42;;;;;;;2.25;2.15;;;22.70;99.90;;;23.02;71.76;101978.34;5062240;28;20052;-65
2023/08/17 07:35:10;;;;;;;2.50;2.40;;;22.80;99.90;;;22.58;71.71;101874.81;5064378;28;20072;-64
2023/08/17 07:37:38;;;;;;;2.47;2.38;;;22.90;99.90;;;23.28;70.65;101980.94;5061078;28;20110;-62
2023/08/17 07:40:09;;;;;;;2.97;2.88;;;23.00;99.90;;;23.39;69.79;101965.22;5061324;28;20045;-64
2023/08/17 07:42:38;;;;;;;2.55;2.45;;;23.20;99.90;;;23.24;69.69;101965.81;5070658;28;20366;-63
2023/08/17 07:45:07;;;;;;;2.58;2.47;;;23.00;99.90;;;23.15;70.18;101971.56;5062170;28;20044;-64
2023/08/17 07:47:37;;;;;;;2.50;2.40;;;22.90;99.90;;;23.39;70.10;101972.44;5069772;28;20048;-63
2023/08/17 07:50:07;;;;;;;4.45;4.05;;;23.10;99.90;;;23.38;69.81;101978.78;5063082;28;20041;-64
2023/08/17 07:52:35;;;;;;;2.35;2.25;;;23.10;99.90;;;23.36;69.42;101954.56;5061957;28;20045;-63
2023/08/17 07:55:05;;;;;;;2.30;2.20;;;23.20;99.90;;;23.18;69.19;101950.72;5063948;28;20346;-64
2023/08/17 07:57:34;;;;;;;2.22;2.13;;;23.10;99.90;;;23.45;69.03;101981.19;5060618;28;20393;-64
2023/08/17 08:00:04;;;;;;;2.60;2.50;;;23.20;99.90;;;23.51;69.22;101962.03;5052584;28;20130;-63
2023/08/17 08:02:35;;;;;;;2.53;2.42;;;23.30;99.90;;;23.90;68.68;101973.03;5052537;28;20514;-64
2023/08/17 08:05:04;;;;;;;2.42;2.33;;;23.60;99.90;;;24.00;67.72;101977.97;5052482;28;20075;-64
2023/08/17 08:07:32;;;;;;;2.10;2.00;;;23.70;99.90;;;24.03;66.98;101975.19;5054358;28;20043;-64
2023/08/17 08:10:01;;;;;;;2.08;1.98;;;23.80;99.90;;;24.02;66.86;101981.53;5068674;28;20482;-64
2023/08/17 08:12:29;;;;;;;2.10;2.00;;;23.70;99.90;;;24.04;66.17;101976.06;5063201;28;20478;-64
2023/08/17 08:14:59;;;;;;;2.55;2.45;;;23.80;99.90;;;24.09;66.53;101964.13;5061119;28;20045;-63
2023/08/17 08:17:27;;;;;;;2.28;2.17;;;23.80;99.90;;;24.09;66.19;101961.41;5064560;28;20052;-63
2023/08/17 08:19:58;;;;;;;2.08;1.98;;;23.80;99.90;;;24.25;66.20;101964.34;5052185;28;20048;-64
2023/08/17 08:22:26;;;;;;;2.08;1.98;;;24.00;99.90;;;24.26;65.76;101957.06;5052230;28;20127;-64
2023/08/17 08:24:55;;;;;;;2.13;2.03;;;24.00;99.90;;;24.28;65.21;101966.00;5067644;28;20060;-64
2023/08/17 08:27:24;;;;;;;2.45;2.35;;;24.00;99.90;;;24.24;65.21;101961.66;5053664;28;20098;-63
2023/08/17 08:29:52;;;;;;;2.45;2.35;;;24.00;99.90;;;24.28;65.04;101957.88;5061757;28;20072;-64
2023/08/17 08:32:23;;;;;;;2.53;2.42;;;24.00;99.90;;;24.27;64.76;101957.03;5062455;28;20508;-64
2023/08/17 08:34:51;;;;;;;1.92;1.83;;;23.90;99.90;;;24.26;65.52;101955.25;5061449;28;20032;-64
2023/08/17 08:37:19;;;;;;;2.60;2.50;;;23.90;99.90;;;23.71;64.95;101855.84;5063386;28;20079;-63
2023/08/17 08:39:51;;;;;;;1.73;1.73;;;24.00;99.90;;;24.28;64.91;101947.97;5059855;28;20088;-63
2023/08/17 08:42:21;;;;;;;2.35;2.25;;;24.00;99.90;;;24.30;64.90;101946.06;5061118;28;20482;-63
2023/08/17 08:44:51;;;;;;;2.35;2.25;;;24.10;99.90;;;24.48;64.64;101950.66;5062481;28;20729;-63
2023/08/17 08:47:19;;;;;;;2.53;2.43;;;24.10;99.90;;;24.45;64.68;101944.53;5061857;28;20049;-64
2023/08/17 08:50:01;;;;;;;2.28;2.17;;;24.20;99.90;;;24.55;64.63;101946.72;5061159;28;20037;-63
2023/08/17 08:52:35;;;;;;;2.15;2.05;;;24.20;99.90;;;24.62;64.00;101944.63;5064130;28;20115;-63
2023/08/17 08:55:13;;;;;;;2.55;2.45;;;24.30;99.90;;;24.72;64.39;101946.00;5077755;28;20044;-64
2023/08/17 08:57:42;;;;;;;1.98;1.88;;;24.40;99.90;;;24.87;64.53;101951.56;5063024;28;20045;-64
2023/08/17 09:00:14;;;;;;;2.00;1.90;;;24.50;99.90;;;24.91;63.89;101941.50;5060163;28;20052;-64
2023/08/17 09:02:44;;;;;;;2.15;2.05;;;24.70;99.90;;;25.04;64.20;101948.97;5051634;28;20301;-64
2023/08/17 09:05:15;;;;;;;2.17;2.08;;;24.70;99.90;;;25.12;63.84;101956.75;5051618;28;20127;-63
2023/08/17 09:07:44;;;;;;;1.90;1.80;;;24.80;99.90;;;25.18;63.54;101964.59;5051538;28;20124;-63
2023/08/17 09:10:13;;;;;;;2.15;2.05;;;24.90;99.90;;;25.22;63.32;101944.53;5053764;28;20586;-63
2023/08/17 09:12:41;;;;;;;1.98;1.88;;;25.00;99.90;;;25.25;63.13;101954.31;5067651;28;20053;-64
2023/08/17 09:15:10;;;;;;;2.10;2.00;;;25.00;99.90;;;25.23;62.76;101935.44;5062582;28;20086;-63
2023/08/17 09:17:39;;;;;;;2.00;1.90;;;25.00;99.90;;;25.22;62.86;101941.81;5060096;28;20233;-64
2023/08/17 09:20:10;;;;;;;2.00;1.90;;;24.90;99.90;;;25.29;63.18;101936.97;5059352;28;20076;-63
2023/08/17 09:22:42;;;;;;;2.25;2.15;;;25.00;99.90;;;25.38;62.65;101936.50;5062615;28;20537;-64
2023/08/17 09:25:11;;;;;;;1.90;1.80;;;25.10;99.90;;;25.44;62.55;101939.84;5056778;28;20065;-63
2023/08/17 09:27:41;;;;;;;2.30;2.20;;;25.20;99.90;;;25.52;62.42;101939.47;5061574;28;20037;-64
2023/08/17 09:30:12;;;;;;;2.08;1.98;;;25.20;99.90;;;25.60;62.59;101930.00;5061264;28;20056;-63
2023/08/17 09:32:40;;;;;;;1.50;1.50;;;25.40;99.90;;;25.64;62.37;101923.47;5062849;28;20037;-64
2023/08/17 09:35:09;;;;;;;1.83;1.77;;;25.50;99.90;;;25.69;62.00;101924.13;5059625;28;20049;-63
2023/08/17 09:37:37;;;;;;;1.67;1.67;;;25.50;99.90;;;25.71;61.85;101922.22;5053780;28;20410;-63
2023/08/17 09:40:09;;;;;;;2.00;1.90;;;25.50;99.90;;;25.71;62.52;101919.50;5055063;28;20498;-63
2023/08/17 09:42:39;;;;;;;1.75;1.75;;;25.50;99.90;;;25.71;62.21;101916.78;5055203;28;20045;-64
2023/08/17 09:45:09;;;;;;;2.00;1.90;;;25.50;99.90;;;25.72;62.34;101913.13;5055260;28;20045;-63
2023/08/17 09:47:38;;;;;;;1.92;1.88;;;25.60;99.90;;;25.86;61.89;101917.84;5065681;28;20072;-63
2023/08/17 09:50:08;;;;;;;2.10;2.00;;;25.60;99.90;;;25.89;61.42;101921.28;5063944;28;20402;-63
2023/08/17 09:52:40;;;;;;;2.17;2.08;;;25.70;99.90;;;25.89;61.32;101910.44;5061981;28;20067;-63
2023/08/17 09:55:13;;;;;;;1.60;1.60;;;25.70;99.90;;;26.02;60.99;101912.50;5062479;28;20056;-63
2023/08/17 09:57:42;;;;;;;2.20;2.10;;;25.80;99.90;;;26.03;60.19;101906.13;5065696;28;20056;-63
2023/08/17 10:00:12;;;;;;;1.70;1.70;;;25.80;99.90;;;26.07;59.77;101926.75;5060630;28;20048;-64
2023/08/17 10:02:40;;;;;;;8.23;4.22;;;25.80;99.90;;;25.99;59.06;101918.09;5065575;28;20064;-63
2023/08/17 10:05:12;;;;;;;1.80;1.80;;;25.70;99.90;;;25.96;59.40;101916.41;5064202;28;20087;-65
2023/08/17 10:07:48;;;;;;;1.73;1.73;;;25.70;99.90;;;25.97;59.39;101917.28;5066515;28;20041;-64
2023/08/17 10:10:26;;;;;;;1.52;1.52;;;25.70;99.90;;;26.03;59.27;101916.97;5063741;28;20049;-64
2023/08/17 10:13:07;;;;;;;2.00;1.90;;;25.70;99.90;;;25.98;59.01;101908.22;5062623;28;20091;-64
2023/08/17 10:15:47;;;;;;;1.60;1.60;;;25.70;99.90;;;25.57;59.60;101840.69;5064046;28;20099;-63
2023/08/17 10:18:23;;;;;;;1.50;1.50;;;25.70;99.90;;;26.03;59.88;101908.84;5063838;28;20064;-64
2023/08/17 10:21:01;;;;;;;2.10;2.00;;;25.70;99.90;;;25.94;59.44;101905.66;5077924;28;20053;-64
2023/08/17 10:23:31;;;;;;;2.00;1.90;;;25.70;99.90;;;25.36;59.56;101803.81;5071164;28;20053;-63